Time;durP1;ratioP1;P1;durP2;ratioP2;P2;SDS_P1;SDS_P2;PMS_P1;PMS_P2;Temp;Humidity;BMP_temperature;BMP_pressure;BME280_temperature;BME280_humidity;BME280_pressure;Samples;Min_cycle;Max_cycle;Signal;HPM_P1;HPM_P2
2024/04/21 00:02:00;;;;;;;;;;;;;;;16.52;49.23;100069.22;5304064;27;1318;-53
2024/04/21 00:04:26;;;;;;;;;;;;;;;16.24;49.83;100087.44;5296990;27;1184;-51
2024/04/21 00:06:51;;;;;;;;;;;;;;;16.02;50.24;100087.41;5292726;27;1260;-50
2024/04/21 00:09:17;;;;;;;;;;;;;;;17.37;47.23;100082.47;5300411;27;1785;-51
2024/04/21 00:11:43;;;;;;;;;;;;;;;17.12;47.87;100092.56;5308386;27;1323;-53
2024/04/21 00:14:08;;;;;;;;;;;;;;;16.47;49.30;100103.28;5303054;27;1823;-49
2024/04/21 00:16:34;;;;;;;;;;;;;;;16.05;50.01;100096.91;5288503;27;1169;-53
2024/04/21 00:18:59;;;;;;;;;;;;;;;15.86;50.34;100106.34;5281850;27;1169;-53
2024/04/21 00:21:25;;;;;;;;;;;;;;;17.21;47.75;100101.56;5304162;27;1275;-52
2024/04/21 00:23:50;;;;;;;;;;;;;;;17.49;46.55;100106.28;5295267;27;1283;-50
2024/04/21 00:26:16;;;;;;;;;;;;;;;16.64;48.90;100117.81;5284964;27;1419;-52
2024/04/21 00:28:45;;;;;;;;;;;;;;;16.19;49.72;100114.38;5315670;27;1179;-54
2024/04/21 00:31:11;;;;;;;;;;;;;;;16.05;49.96;100112.00;5315240;27;1244;-51
2024/04/21 00:33:37;;;;;;;;;;;;;;;16.61;49.65;100121.59;5301931;27;1831;-51
2024/04/21 00:36:03;;;;;;;;;;;;;;;17.61;46.98;100115.88;5306155;27;1197;-50
2024/04/21 00:38:28;;;;;;;;;;;;;;;16.67;48.78;100122.88;5311127;27;1240;-52
2024/04/21 00:40:54;;;;;;;;;;;;;;;16.28;49.68;100115.44;5304083;27;1296;-51
2024/04/21 00:43:19;;;;;;;;;;;;;;;16.16;50.12;100119.94;5281119;27;1153;-53
2024/04/21 00:45:45;;;;;;;;;;;;;;;17.59;46.75;100116.97;5281093;27;1296;-52
2024/04/21 00:48:11;;;;;;;;;;;;;;;16.79;48.33;100118.34;5281325;27;1276;-52
2024/04/21 00:50:37;;;;;;;;;;;;;;;16.27;49.83;100111.94;5303471;27;1189;-51
2024/04/21 00:53:03;;;;;;;;;;;;;;;16.07;50.03;100118.00;5315353;27;1274;-54
2024/04/21 00:55:28;;;;;;;;;;;;;;;17.54;46.99;100117.38;5282459;27;1823;-49
2024/04/21 00:57:54;;;;;;;;;;;;;;;16.89;48.17;100111.28;5265174;27;1274;-51
2024/04/21 01:00:19;;;;;;;;;;;;;;;16.39;49.45;100119.84;5289559;27;1244;-49
2024/04/21 01:02:45;;;;;;;;;;;;;;;16.07;49.82;100099.44;5259669;27;1292;-50
2024/04/21 01:05:10;;;;;;;;;;;;;;;16.32;49.77;100113.34;5306559;27;1253;-52
2024/04/21 01:07:36;;;;;;;;;;;;;;;17.40;47.20;100105.25;5314569;27;1176;-50
2024/04/21 01:10:03;;;;;;;;;;;;;;;16.57;48.87;100114.81;5312292;27;1244;-52
2024/04/21 01:12:29;;;;;;;;;;;;;;;16.16;49.71;100122.59;5295648;27;1225;-54
2024/04/21 01:14:54;;;;;;;;;;;;;;;15.93;50.33;100117.31;5294176;27;1835;-49
2024/04/21 01:17:20;;;;;;;;;;;;;;;17.44;47.11;100114.69;5300103;27;1138;-49
2024/04/21 01:19:45;;;;;;;;;;;;;;;17.05;47.91;100119.78;5281522;27;1248;-50
2024/04/21 01:22:11;;;;;;;;;;;;;;;16.39;49.06;100123.34;5314443;27;1169;-50
2024/04/21 01:24:36;;;;;;;;;;;;;;;16.08;49.87;100117.88;5309253;27;1073;-50
2024/04/21 01:27:02;;;;;;;;;;;;;;;16.30;49.76;100128.59;5280385;27;1166;-50
2024/04/21 01:29:28;;;;;;;;;;;;;;;17.70;46.41;100127.50;5304101;27;1272;-47
2024/04/21 01:31:53;;;;;;;;;;;;;;;16.95;47.57;100131.16;5314716;27;1173;-47
2024/04/21 01:34:18;;;;;;;;;;;;;;;16.39;48.82;100133.13;5292169;27;1839;-48
2024/04/21 01:36:44;;;;;;;;;;;;;;;16.04;50.04;100135.03;5301923;27;1283;-50
2024/04/21 01:39:09;;;;;;;;;;;;;;;17.32;47.39;100137.00;5286180;27;1323;-50
2024/04/21 01:41:35;;;;;;;;;;;;;;;17.19;47.39;100124.78;5283975;27;1188;-51
2024/04/21 01:44:00;;;;;;;;;;;;;;;16.52;48.73;100132.94;5291832;27;1374;-49
2024/04/21 01:46:26;;;;;;;;;;;;;;;16.19;49.37;100138.25;5302112;27;1295;-51
2024/04/21 01:48:51;;;;;;;;;;;;;;;16.00;49.92;100133.56;5306551;27;1260;-51
2024/04/21 01:51:17;;;;;;;;;;;;;;;17.48;47.07;100137.34;5305477;27;1378;-48
2024/04/21 01:53:42;;;;;;;;;;;;;;;16.91;47.66;100137.72;5307446;27;1869;-51
2024/04/21 01:56:08;;;;;;;;;;;;;;;16.39;49.07;100147.25;5305147;27;1171;-52
2024/04/21 01:58:33;;;;;;;;;;;;;;;16.16;49.49;100147.28;5306027;27;1290;-54
2024/04/21 02:00:59;;;;;;;;;;;;;;;15.86;50.01;100150.59;5283621;27;1266;-51
2024/04/21 02:03:24;;;;;;;;;;;;;;;17.22;47.67;100153.75;5290924;27;1176;-51
2024/04/21 02:05:50;;;;;;;;;;;;;;;17.01;47.50;100157.25;5317333;27;1176;-50
2024/04/21 02:08:15;;;;;;;;;;;;;;;16.38;49.14;100156.16;5293764;27;1215;-49
2024/04/21 02:10:41;;;;;;;;;;;;;;;16.04;49.66;100153.59;5283457;27;1294;-49
2024/04/21 02:13:06;;;;;;;;;;;;;;;16.66;49.09;100161.03;5306270;27;1260;-49
2024/04/21 02:15:32;;;;;;;;;;;;;;;17.60;46.57;100154.06;5313268;27;1830;-51
2024/04/21 02:17:57;;;;;;;;;;;;;;;16.68;48.43;100150.28;5294543;27;1136;-51
2024/04/21 02:20:23;;;;;;;;;;;;;;;16.31;49.19;100151.50;5314820;27;1270;-50
2024/04/21 02:22:48;;;;;;;;;;;;;;;15.98;49.65;100154.94;5316875;27;1125;-51
2024/04/21 02:25:16;;;;;;;;;;;;;;;17.27;47.05;100158.66;5307610;27;1176;-51
2024/04/21 02:27:42;;;;;;;;;;;;;;;17.17;47.14;100158.59;5294906;27;1165;-52
2024/04/21 02:30:07;;;;;;;;;;;;;;;16.49;48.85;100160.59;5315451;27;1338;-52
2024/04/21 02:32:33;;;;;;;;;;;;;;;16.14;49.49;100166.97;5317389;27;1279;-52
2024/04/21 02:34:58;;;;;;;;;;;;;;;16.92;48.07;100170.44;5285339;27;1830;-50
2024/04/21 02:37:24;;;;;;;;;;;;;;;17.34;46.49;100175.78;5281583;27;1185;-49
2024/04/21 02:39:49;;;;;;;;;;;;;;;16.62;48.45;100188.78;5304188;27;1192;-50
2024/04/21 02:42:15;;;;;;;;;;;;;;;16.27;49.02;100186.25;5283079;27;1318;-50
2024/04/21 02:44:41;;;;;;;;;;;;;;;15.97;49.72;100184.19;5314528;27;1228;-50
2024/04/21 02:47:06;;;;;;;;;;;;;;;16.28;49.62;100182.63;5317449;27;1310;-51
2024/04/21 02:49:32;;;;;;;;;;;;;;;17.68;46.21;100182.69;5307673;27;1235;-51
2024/04/21 02:51:57;;;;;;;;;;;;;;;16.75;48.01;100194.78;5293257;27;1271;-53
2024/04/21 02:54:26;;;;;;;;;;;;;;;16.26;49.26;100203.16;5316416;27;1868;-51
2024/04/21 02:56:51;;;;;;;;;;;;;;;15.98;49.66;100194.72;5296139;27;1375;-52
2024/04/21 02:59:17;;;;;;;;;;;;;;;17.29;47.32;100199.25;5303987;27;1197;-51
2024/04/21 03:01:42;;;;;;;;;;;;;;;17.08;47.28;100199.22;5282579;27;1287;-51
2024/04/21 03:04:08;;;;;;;;;;;;;;;16.41;48.82;100194.91;5312292;27;1304;-51
2024/04/21 03:06:33;;;;;;;;;;;;;;;16.13;49.40;100197.97;5317186;27;1291;-50
2024/04/21 03:08:59;;;;;;;;;;;;;;;16.03;50.04;100205.00;5316801;27;1156;-52
2024/04/21 03:11:24;;;;;;;;;;;;;;;17.49;46.77;100208.19;5316485;27;1116;-51
2024/04/21 03:13:50;;;;;;;;;;;;;;;16.84;47.50;100205.63;5293551;27;1866;-51
2024/04/21 03:16:15;;;;;;;;;;;;;;;16.28;49.12;100208.34;5311988;27;1482;-53
2024/04/21 03:18:41;;;;;;;;;;;;;;;15.96;49.72;100212.56;5285511;27;1145;-49
2024/04/21 03:21:06;;;;;;;;;;;;;;;16.84;48.10;100221.56;5291264;27;1253;-49
2024/04/21 03:23:32;;;;;;;;;;;;;;;17.51;45.91;100224.00;5305468;27;1197;-49
2024/04/21 03:25:57;;;;;;;;;;;;;;;16.57;48.42;100225.50;5295694;27;1450;-51
2024/04/21 03:28:23;;;;;;;;;;;;;;;16.24;49.21;100223.66;5299216;27;1280;-54
2024/04/21 03:30:58;;;;;;;;;;;;;;;15.95;49.73;100210.84;5310603;27;1299;-54
2024/04/21 03:33:23;;;;;;;;;;;;;;;17.33;47.25;100216.63;5296443;27;1831;-55
2024/04/21 03:36:04;;;;;;;;;;;;;;;17.19;46.77;100217.81;5306212;27;1549;-56
2024/04/21 03:38:32;;;;;;;;;;;;;;;16.38;48.93;100224.34;5293330;27;1281;-56
2024/04/21 03:40:58;;;;;;;;;;;;;;;16.07;49.69;100227.66;5288931;27;1155;-57
2024/04/21 03:43:24;;;;;;;;;;;;;;;15.96;49.61;100232.94;5304890;27;1414;-56
2024/04/21 03:45:49;;;;;;;;;;;;;;;17.23;47.18;100243.13;5296245;27;1057;-56
2024/04/21 03:48:15;;;;;;;;;;;;;;;16.99;47.68;100240.69;5303868;27;1311;-57
2024/04/21 03:50:41;;;;;;;;;;;;;;;16.33;48.96;100237.16;5292925;27;1279;-55
2024/04/21 03:53:08;;;;;;;;;;;;;;;16.09;49.52;100244.28;5280083;27;1462;-56
2024/04/21 03:55:33;;;;;;;;;;;;;;;16.02;49.17;100246.59;5316229;27;1857;-52
2024/04/21 03:57:59;;;;;;;;;;;;;;;16.80;48.14;100252.00;5312750;27;1195;-50
2024/04/21 04:00:25;;;;;;;;;;;;;;;17.58;46.12;100253.59;5292221;27;1533;-52
2024/04/21 04:02:50;;;;;;;;;;;;;;;16.60;48.26;100242.03;5305268;27;2892;-51
2024/04/21 04:05:16;;;;;;;;;;;;;;;16.86;48.83;100236.41;5292709;27;1045;-50
2024/04/21 04:07:41;;;;;;;;;;;;;;;16.17;49.87;100241.03;5301725;27;1122;-52
2024/04/21 04:10:07;;;;;;;;;;;;;;;15.54;49.93;100243.16;5281121;27;1185;-49
2024/04/21 04:12:40;;;;;;;;;;;;;;;15.46;49.88;100245.53;5311604;27;1236;-50
2024/04/21 04:15:06;;;;;;;;;;;;;;;15.24;49.98;100119.97;5295946;27;1826;-51
2024/04/21 04:17:31;;;;;;;;;;;;;;;15.45;49.41;100248.31;5288694;27;1098;-49
2024/04/21 04:19:57;;;;;;;;;;;;;;;15.24;48.60;100249.81;5285130;27;1291;-48
2024/04/21 04:22:22;;;;;;;;;;;;;;;16.38;49.37;100251.72;5315160;26;1182;-50
2024/04/21 04:24:48;;;;;;;;;;;;;;;15.58;49.46;100251.69;5288918;27;1287;-50
2024/04/21 04:27:13;;;;;;;;;;;;;;;15.35;48.49;100249.00;5281584;27;1240;-51
2024/04/21 04:29:39;;;;;;;;;;;;;;;16.27;49.11;100257.91;5283332;27;1232;-49
2024/04/21 04:32:05;;;;;;;;;;;;;;;15.46;49.37;100252.66;5295300;27;2838;-50
2024/04/21 04:34:30;;;;;;;;;;;;;;;16.33;49.54;100245.94;5303465;27;1833;-50
2024/04/21 04:36:56;;;;;;;;;;;;;;;16.02;49.61;100251.91;5291952;27;1319;-51
2024/04/21 04:39:21;;;;;;;;;;;;;;;15.49;49.30;100258.56;5315171;27;1136;-51
2024/04/21 04:41:47;;;;;;;;;;;;;;;15.36;48.08;100261.31;5292917;27;1319;-50
2024/04/21 04:44:12;;;;;;;;;;;;;;;15.23;47.38;100260.53;5293104;27;1259;-49
2024/04/21 04:46:37;;;;;;;;;;;;;;;16.36;49.13;100266.97;5291287;27;1193;-50
2024/04/21 04:49:03;;;;;;;;;;;;;;;15.57;48.91;100270.38;5315207;27;1283;-54
2024/04/21 04:51:28;;;;;;;;;;;;;;;15.50;49.61;100270.00;5313906;26;1499;-52
2024/04/21 04:53:54;;;;;;;;;;;;;;;16.28;48.63;100266.72;5292800;27;1866;-51
2024/04/21 04:56:19;;;;;;;;;;;;;;;16.38;49.47;100272.97;5313400;27;1129;-54
2024/04/21 04:58:45;;;;;;;;;;;;;;;17.92;47.40;100284.41;5315466;27;1153;-49
2024/04/21 05:01:10;;;;;;;;;;;;;;;16.62;49.05;100279.09;5292258;27;1315;-48
2024/04/21 05:03:36;;;;;;;;;;;;;;;15.93;48.96;100273.81;5293279;27;3017;-49
2024/04/21 05:06:01;;;;;;;;;;;;;;;15.73;48.22;100275.34;5297559;26;2625;-54
2024/04/21 05:08:27;;;;;;;;;;;;;;;15.51;47.44;100279.66;5298272;27;2442;-52
2024/04/21 05:10:52;;;;;;;;;;;;;;;16.89;48.41;100285.78;5292526;27;1165;-52
2024/04/21 05:13:18;;;;;;;;;;;;;;;15.87;49.13;100282.22;5315025;27;1177;-53
2024/04/21 05:15:43;;;;;;;;;;;;;;;15.56;48.39;100277.50;5314643;27;1831;-52
2024/04/21 05:18:09;;;;;;;;;;;;;;;16.74;48.44;100278.09;5289841;27;1068;-51
2024/04/21 05:20:34;;;;;;;;;;;;;;;15.81;48.96;100274.75;5312666;27;1197;-54
2024/04/21 05:23:00;;;;;;;;;;;;;;;15.54;48.19;100284.72;5315132;27;1228;-52
2024/04/21 05:25:25;;;;;;;;;;;;;;;16.72;48.76;100279.19;5283691;27;1283;-53
2024/04/21 05:27:51;;;;;;;;;;;;;;;15.89;48.99;100282.97;5284264;27;1177;-53
2024/04/21 05:30:16;;;;;;;;;;;;;;;15.51;48.19;100277.84;5296632;27;1169;-51
2024/04/21 05:32:42;;;;;;;;;;;;;;;16.73;48.15;100281.72;5318138;27;1181;-52
2024/04/21 05:35:08;;;;;;;;;;;;;;;15.72;48.69;100281.59;5287348;27;1867;-52
2024/04/21 05:37:33;;;;;;;;;;;;;;;16.86;48.35;100280.72;5298075;27;1387;-53
2024/04/21 05:39:59;;;;;;;;;;;;;;;16.72;48.18;100293.31;5284411;27;1178;-52
2024/04/21 05:42:24;;;;;;;;;;;;;;;15.93;48.58;100295.03;5290075;27;1193;-51
2024/04/21 05:44:49;;;;;;;;;;;;;;;16.98;48.70;100297.47;5290649;27;1331;-51
2024/04/21 05:47:15;;;;;;;;;;;;;;;16.19;48.78;100291.31;5317488;26;1355;-52
2024/04/21 05:49:41;;;;;;;;;;;;;;;15.75;48.10;100287.53;5286529;27;1224;-52
2024/04/21 05:52:06;;;;;;;;;;;;;;;15.77;48.73;100298.00;5303680;27;1166;-53
2024/04/21 05:54:32;;;;;;;;;;;;;;;16.24;48.48;100294.47;5286497;27;1826;-54
2024/04/21 05:56:57;;;;;;;;;;;;;;;15.76;48.26;100299.00;5299738;27;1129;-49
2024/04/21 05:59:23;;;;;;;;;;;;;;;15.51;47.57;100292.91;5314255;27;1234;-52
2024/04/21 06:01:49;;;;;;;;;;;;;;;15.52;47.79;100303.41;5297814;27;1199;-52
2024/04/21 06:04:14;;;;;;;;;;;;;;;16.03;48.02;100316.41;5306003;27;1228;-52
2024/04/21 06:06:40;;;;;;;;;;;;;;;16.34;48.83;100313.16;5301596;27;1073;-56
2024/04/21 06:09:05;;;;;;;;;;;;;;;17.98;46.18;100314.00;5287085;27;1117;-55
2024/04/21 06:11:31;;;;;;;;;;;;;;;16.39;48.68;100309.19;5253870;27;1194;-57
2024/04/21 06:13:56;;;;;;;;;;;;;;;15.91;48.45;100312.88;5283355;27;1826;-55
2024/04/21 06:16:22;;;;;;;;;;;;;;;15.66;47.82;100315.59;5283245;27;1170;-56
2024/04/21 06:18:47;;;;;;;;;;;;;;;16.44;48.45;100318.56;5302547;27;1280;-52
2024/04/21 06:21:13;;;;;;;;;;;;;;;15.80;48.63;100319.00;5284730;27;1312;-56
2024/04/21 06:23:38;;;;;;;;;;;;;;;16.17;48.77;100320.63;5305780;27;1380;-55
2024/04/21 06:26:04;;;;;;;;;;;;;;;16.07;48.80;100317.00;5304840;27;1200;-55
2024/04/21 06:28:31;;;;;;;;;;;;;;;15.65;48.36;100318.34;5294236;27;1495;-53
2024/04/21 06:30:56;;;;;;;;;;;;;;;16.98;48.15;100322.22;5310918;27;1168;-54
2024/04/21 06:33:22;;;;;;;;;;;;;;;16.00;48.60;100314.84;5283224;27;1202;-55
2024/04/21 06:35:49;;;;;;;;;;;;;;;15.64;48.24;100316.66;5283514;27;1189;-54
2024/04/21 06:38:15;;;;;;;;;;;;;;;15.47;47.54;100315.28;5305378;27;1224;-53
2024/04/21 06:40:40;;;;;;;;;;;;;;;15.82;48.36;100318.88;5283207;27;1205;-53
2024/04/21 06:43:06;;;;;;;;;;;;;;;15.98;48.20;100310.59;5293456;27;1276;-52
2024/04/21 06:45:31;;;;;;;;;;;;;;;15.55;48.05;100305.81;5293954;27;1282;-56
2024/04/21 06:47:57;;;;;;;;;;;;;;;15.30;47.56;100314.75;5283048;27;1302;-55
2024/04/21 06:50:22;;;;;;;;;;;;;;;16.31;47.52;100321.38;5282861;27;1307;-55
2024/04/21 06:52:48;;;;;;;;;;;;;;;15.57;48.10;100315.44;5316107;27;1315;-57
2024/04/21 06:55:13;;;;;;;;;;;;;;;15.34;47.62;100315.38;5308810;26;1827;-56
2024/04/21 06:57:40;;;;;;;;;;;;;;;16.10;47.88;100316.78;5305805;27;1220;-53
2024/04/21 07:00:06;;;;;;;;;;;;;;;15.57;48.09;100316.28;5304960;27;1371;-56
2024/04/21 07:02:32;;;;;;;;;;;;;;;16.60;47.99;100324.34;5293267;27;1385;-56
2024/04/21 07:04:57;;;;;;;;;;;;;;;15.88;48.30;100313.94;5316562;27;1152;-53
2024/04/21 07:07:23;;;;;;;;;;;;;;;15.52;48.01;100310.50;5293173;27;1307;-54
2024/04/21 07:09:48;;;;;;;;;;;;;;;15.40;47.07;100321.06;5294454;27;1264;-52
2024/04/21 07:12:14;;;;;;;;;;;;;;;15.29;47.15;100316.56;5292871;27;1286;-56
2024/04/21 07:14:39;;;;;;;;;;;;;;;16.27;47.49;100324.25;5314289;27;1835;-54
2024/04/21 07:17:05;;;;;;;;;;;;;;;15.84;48.81;100327.56;5254074;27;1292;-52
2024/04/21 07:19:30;;;;;;;;;;;;;;;17.71;46.46;100330.53;5303743;27;1085;-54
2024/04/21 07:21:57;;;;;;;;;;;;;;;16.60;48.40;100321.69;5312292;27;1760;-53
2024/04/21 07:24:23;;;;;;;;;;;;;;;15.90;48.27;100330.59;5296042;27;1167;-52
2024/04/21 07:26:49;;;;;;;;;;;;;;;15.63;47.98;100322.94;5286837;27;1528;-53
2024/04/21 07:29:14;;;;;;;;;;;;;;;15.38;47.35;100325.63;5315699;27;1252;-52
2024/04/21 07:31:40;;;;;;;;;;;;;;;16.65;47.87;100321.31;5276009;27;1069;-52
2024/04/21 07:34:06;;;;;;;;;;;;;;;15.70;48.51;100324.16;5299270;27;1830;-55
2024/04/21 07:36:32;;;;;;;;;;;;;;;15.49;47.88;100323.97;5310744;27;1254;-55
2024/04/21 07:38:57;;;;;;;;;;;;;;;15.42;46.99;100320.94;5301631;27;1217;-55
2024/04/21 07:41:23;;;;;;;;;;;;;;;16.76;47.21;100329.28;5293741;27;1256;-54
2024/04/21 07:43:48;;;;;;;;;;;;;;;15.73;48.28;100323.91;5301956;27;1064;-51
2024/04/21 07:46:14;;;;;;;;;;;;;;;16.82;47.92;100321.78;5306086;27;1307;-53
2024/04/21 07:48:39;;;;;;;;;;;;;;;16.65;48.17;100326.63;5291151;27;1566;-51
2024/04/21 07:51:05;;;;;;;;;;;;;;;15.86;48.61;100328.28;5315552;27;1236;-52
2024/04/21 07:53:30;;;;;;;;;;;;;;;15.62;48.07;100322.09;5315166;27;1834;-52
2024/04/21 07:55:56;;;;;;;;;;;;;;;15.47;47.92;100332.06;5296254;27;1116;-52
2024/04/21 07:58:21;;;;;;;;;;;;;;;16.02;48.36;100331.50;5282532;27;1134;-52
2024/04/21 08:00:47;;;;;;;;;;;;;;;15.69;47.94;100324.28;5282067;27;1169;-56
2024/04/21 08:03:12;;;;;;;;;;;;;;;15.37;47.82;100326.59;5283628;27;1290;-55
2024/04/21 08:05:38;;;;;;;;;;;;;;;15.78;48.25;100327.06;5315571;27;1271;-52
2024/04/21 08:08:04;;;;;;;;;;;;;;;15.79;47.93;100333.22;5304709;27;1132;-53
2024/04/21 08:10:29;;;;;;;;;;;;;;;17.14;47.07;100323.66;5294473;27;1446;-52
2024/04/21 08:12:55;;;;;;;;;;;;;;;17.81;46.00;100333.25;5292349;27;1133;-55
2024/04/21 08:15:21;;;;;;;;;;;;;;;16.31;48.83;100331.97;5302624;27;1861;-53
2024/04/21 08:17:46;;;;;;;;;;;;;;;15.99;48.14;100338.84;5304468;27;1303;-53
2024/04/21 08:20:12;;;;;;;;;;;;;;;15.78;47.55;100335.03;5309220;27;1176;-52
2024/04/21 08:22:37;;;;;;;;;;;;;;;15.64;47.32;100330.78;5296930;27;1331;-45
2024/04/21 08:25:03;;;;;;;;;;;;;;;15.49;46.67;100337.22;5281997;27;1348;-48
2024/04/21 08:27:28;;;;;;;;;;;;;;;16.32;48.04;100338.97;5285272;27;1287;-54
2024/04/21 08:29:54;;;;;;;;;;;;;;;15.85;48.53;100335.41;5308315;27;1157;-45
2024/04/21 08:32:19;;;;;;;;;;;;;;;15.55;47.90;100334.13;5296856;27;1299;-52
2024/04/21 08:34:45;;;;;;;;;;;;;;;15.40;47.25;100333.47;5306534;27;1831;-54
2024/04/21 08:37:12;;;;;;;;;;;;;;;15.30;46.92;100335.94;5297987;27;1267;-55
2024/04/21 08:39:37;;;;;;;;;;;;;;;15.35;47.35;100346.25;5280353;27;1218;-55
2024/04/21 08:42:03;;;;;;;;;;;;;;;16.13;47.73;100343.91;5312748;27;1125;-55
2024/04/21 08:44:29;;;;;;;;;;;;;;;15.51;48.19;100337.97;5286938;27;1124;-54
2024/04/21 08:46:55;;;;;;;;;;;;;;;16.84;47.80;100346.41;5297260;27;1247;-54
2024/04/21 08:49:20;;;;;;;;;;;;;;;16.02;48.56;100333.28;5273502;27;1295;-55
2024/04/21 08:51:46;;;;;;;;;;;;;;;15.62;48.18;100337.16;5280995;27;1180;-52
2024/04/21 08:54:11;;;;;;;;;;;;;;;16.13;48.95;100343.09;5281133;27;1845;-50
2024/04/21 08:56:38;;;;;;;;;;;;;;;16.06;48.35;100341.84;5305462;27;1165;-55
2024/04/21 08:59:04;;;;;;;;;;;;;;;15.69;48.09;100337.53;5279347;27;1295;-53
2024/04/21 09:01:29;;;;;;;;;;;;;;;15.43;47.72;100343.84;5308388;27;1180;-49
2024/04/21 09:03:55;;;;;;;;;;;;;;;16.83;47.34;100348.22;5264008;27;1241;-52
2024/04/21 09:06:24;;;;;;;;;;;;;;;15.82;48.53;100348.03;5291761;27;1165;-51
2024/04/21 09:08:50;;;;;;;;;;;;;;;15.86;48.85;100345.06;5317895;27;1333;-53
2024/04/21 09:11:16;;;;;;;;;;;;;;;16.29;48.27;100340.06;5318073;27;1165;-51
2024/04/21 09:13:41;;;;;;;;;;;;;;;15.74;48.49;100343.34;5317480;27;1964;-52
2024/04/21 09:16:07;;;;;;;;;;;;;;;15.57;47.80;100341.94;5317586;27;1177;-49
2024/04/21 09:18:32;;;;;;;;;;;;;;;15.45;48.08;100346.41;5296510;27;1261;-50
2024/04/21 09:20:58;;;;;;;;;;;;;;;15.96;48.28;100352.31;5300097;27;1265;-50
2024/04/21 09:23:24;;;;;;;;;;;;;;;15.45;48.17;100354.34;5305996;27;1192;-49
2024/04/21 09:25:50;;;;;;;;;;;;;;;16.71;47.62;100354.53;5301391;27;1098;-52
2024/04/21 09:28:16;;;;;;;;;;;;;;;15.84;47.98;100351.44;5288423;26;1120;-51
2024/04/21 09:30:41;;;;;;;;;;;;;;;15.47;47.67;100349.75;5295385;27;1323;-53
2024/04/21 09:33:07;;;;;;;;;;;;;;;16.28;48.11;100351.66;5296302;27;1387;-52
2024/04/21 09:35:32;;;;;;;;;;;;;;;16.06;48.20;100360.44;5298514;27;1858;-50
2024/04/21 09:37:58;;;;;;;;;;;;;;;15.64;47.96;100353.78;5314430;27;1278;-51
2024/04/21 09:40:23;;;;;;;;;;;;;;;15.38;47.65;100351.31;5309810;27;1274;-52
2024/04/21 09:42:49;;;;;;;;;;;;;;;15.39;46.79;100356.50;5290546;27;1368;-52
2024/04/21 09:45:14;;;;;;;;;;;;;;;16.43;47.34;100357.56;5285730;27;1276;-53
2024/04/21 09:47:41;;;;;;;;;;;;;;;15.63;48.10;100345.00;5274135;27;1484;-49
2024/04/21 09:50:08;;;;;;;;;;;;;;;15.39;47.72;100353.84;5306417;27;1390;-57
2024/04/21 09:52:33;;;;;;;;;;;;;;;16.74;47.28;100362.25;5297832;27;1271;-55
2024/04/21 09:55:01;;;;;;;;;;;;;;;15.81;48.08;100360.47;5265603;27;1864;-56
2024/04/21 09:57:26;;;;;;;;;;;;;;;15.39;47.94;100361.78;5283898;27;1623;-51
2024/04/21 09:59:55;;;;;;;;;;;;;;;16.04;48.07;100365.84;5306228;27;1264;-50
2024/04/21 10:02:24;;;;;;;;;;;;;;;15.85;48.25;100363.75;5268856;27;1134;-47
2024/04/21 10:04:52;;;;;;;;;;;;;;;15.51;48.22;100364.47;5312120;27;1371;-51
2024/04/21 10:07:19;;;;;;;;;;;;;;;15.37;47.57;100362.84;5288552;27;1236;-53
2024/04/21 10:09:45;;;;;;;;;;;;;;;15.84;48.29;100365.56;5275785;27;1250;-56
2024/04/21 10:12:10;;;;;;;;;;;;;;;15.98;47.67;100368.97;5283664;27;1177;-53
2024/04/21 10:14:36;;;;;;;;;;;;;;;16.94;47.13;100368.63;5302677;27;1853;-51
2024/04/21 10:17:02;;;;;;;;;;;;;;;18.10;45.50;100375.16;5276139;27;1214;-53
2024/04/21 10:19:27;;;;;;;;;;;;;;;16.38;48.63;100373.03;5294817;27;1384;-55
2024/04/21 10:21:53;;;;;;;;;;;;;;;15.95;48.11;100371.84;5294581;27;1370;-55
2024/04/21 10:24:19;;;;;;;;;;;;;;;15.85;47.30;100372.53;5316757;27;1262;-54
2024/04/21 10:26:44;;;;;;;;;;;;;;;15.59;47.17;100359.44;5308016;27;1133;-56
2024/04/21 10:29:10;;;;;;;;;;;;;;;15.75;47.68;100364.44;5283229;27;1208;-50
2024/04/21 10:31:36;;;;;;;;;;;;;;;16.64;47.47;100355.03;5259249;27;1159390;-51
2024/04/21 10:34:10;;;;;;;;;;;;;;;15.76;48.69;100360.84;5298816;27;1837;-56
2024/04/21 10:36:54;;;;;;;;;;;;;;;15.62;47.76;100363.66;5284419;27;1204;-55
2024/04/21 10:39:23;;;;;;;;;;;;;;;15.47;46.99;100363.00;5301024;27;1268;-55
2024/04/21 10:41:49;;;;;;;;;;;;;;;16.03;47.98;100351.75;5310989;27;1339;-54
2024/04/21 10:44:14;;;;;;;;;;;;;;;16.26;48.07;100354.44;5284098;27;1037;-56
2024/04/21 10:46:40;;;;;;;;;;;;;;;15.71;48.03;100359.47;5288504;27;1213;-55
2024/04/21 10:49:05;;;;;;;;;;;;;;;17.47;46.83;100358.19;5282860;27;1268;-55
2024/04/21 10:51:31;;;;;;;;;;;;;;;16.11;48.45;100356.47;5287958;27;1154;-56
2024/04/21 10:53:57;;;;;;;;;;;;;;;15.81;47.89;100355.19;5300531;27;1871;-55
2024/04/21 10:56:22;;;;;;;;;;;;;;;15.59;47.50;100348.00;5264947;27;1213;-56
2024/04/21 10:58:48;;;;;;;;;;;;;;;15.46;47.30;100348.06;5316811;27;1149;-56
2024/04/21 11:01:14;;;;;;;;;;;;;;;16.48;47.27;100352.72;5311431;27;1169;-56
2024/04/21 11:03:41;;;;;;;;;;;;;;;15.66;48.31;100349.22;5282319;27;1276;-54
2024/04/21 11:06:08;;;;;;;;;;;;;;;16.57;47.77;100355.63;5287246;27;1236;-55
2024/04/21 11:08:34;;;;;;;;;;;;;;;16.34;48.08;100351.16;5298896;27;1092;-53
2024/04/21 11:10:59;;;;;;;;;;;;;;;15.73;48.41;100355.75;5282220;27;1138;-55
2024/04/21 11:13:25;;;;;;;;;;;;;;;15.57;47.67;100350.75;5269451;27;1160;-55
2024/04/21 11:15:50;;;;;;;;;;;;;;;15.54;47.08;100359.81;5310720;27;1833;-57
2024/04/21 11:18:16;;;;;;;;;;;;;;;15.76;47.81;100352.88;5280171;27;1162;-57
2024/04/21 11:20:42;;;;;;;;;;;;;;;16.50;47.42;100353.44;5306874;27;1264;-56
2024/04/21 11:23:09;;;;;;;;;;;;;;;15.83;48.13;100345.28;5279961;27;1541;-57
2024/04/21 11:25:36;;;;;;;;;;;;;;;15.57;47.78;100345.47;5313146;27;1526;-57
2024/04/21 11:28:08;;;;;;;;;;;;;;;15.41;47.07;100348.41;5310014;27;1232;-56
2024/04/21 11:30:33;;;;;;;;;;;;;;;16.34;47.65;100347.66;5302781;27;1492;-53
2024/04/21 11:32:59;;;;;;;;;;;;;;;15.69;47.88;100353.44;5310844;27;1129;-56
2024/04/21 11:35:25;;;;;;;;;;;;;;;15.51;47.03;100346.78;5312005;27;1883;-56
2024/04/21 11:37:50;;;;;;;;;;;;;;;15.73;47.62;100346.97;5284924;27;1323;-56
2024/04/21 11:40:16;;;;;;;;;;;;;;;16.44;47.34;100353.09;5264242;27;1303;-56
2024/04/21 11:42:42;;;;;;;;;;;;;;;15.69;48.04;100356.09;5304624;27;1328;-57
2024/04/21 11:45:07;;;;;;;;;;;;;;;15.53;47.34;100357.25;5294823;27;1015;-48
2024/04/21 11:47:33;;;;;;;;;;;;;;;16.53;47.27;100355.84;5304161;27;1183;-50
2024/04/21 11:49:58;;;;;;;;;;;;;;;16.12;47.72;100355.50;5308973;27;1212;-53
2024/04/21 11:52:24;;;;;;;;;;;;;;;15.55;48.12;100342.06;5315822;27;1181;-52
2024/04/21 11:54:49;;;;;;;;;;;;;;;17.01;46.39;100353.03;5293536;27;1823;-52
2024/04/21 11:57:15;;;;;;;;;;;;;;;15.90;47.95;100345.66;5312150;27;1045;-52
2024/04/21 11:59:40;;;;;;;;;;;;;;;17.61;45.90;100349.94;5315607;27;1260;-55
2024/04/21 12:02:06;;;;;;;;;;;;;;;16.96;47.16;100347.25;5293008;26;1319;-50
2024/04/21 12:04:31;;;;;;;;;;;;;;;16.09;48.21;100350.44;5251931;27;1284;-52
2024/04/21 12:06:57;;;;;;;;;;;;;;;15.94;47.66;100346.25;5304081;27;1173;-51
2024/04/21 12:09:22;;;;;;;;;;;;;;;15.78;47.14;100339.50;5288946;27;1283;-55
2024/04/21 12:11:48;;;;;;;;;;;;;;;15.60;46.87;100345.22;5290347;27;1175;-51
2024/04/21 12:14:24;;;;;;;;;;;;;;;15.59;46.44;100342.69;5281769;27;1864;-51
2024/04/21 12:16:50;;;;;;;;;;;;;;;16.19;47.66;100337.28;5293765;27;1743;-51
2024/04/21 12:19:15;;;;;;;;;;;;;;;15.71;47.42;100331.16;5280715;27;1141;-48
2024/04/21 12:21:41;;;;;;;;;;;;;;;15.56;47.03;100330.53;5286713;27;1562;-52
2024/04/21 12:24:07;;;;;;;;;;;;;;;15.88;47.63;100334.34;5298655;27;1133;-51
2024/04/21 12:26:32;;;;;;;;;;;;;;;16.14;47.50;100320.88;5306926;27;1334;-53
2024/04/21 12:28:58;;;;;;;;;;;;;;;15.69;47.70;100309.22;5315232;27;1183;-54
2024/04/21 12:31:23;;;;;;;;;;;;;;;15.98;47.88;100319.41;5286309;27;1287;-52
2024/04/21 12:33:49;;;;;;;;;;;;;;;16.20;47.70;100315.09;5310933;27;1871;-56
2024/04/21 12:36:14;;;;;;;;;;;;;;;15.70;47.71;100312.72;5287568;27;1201;-57
2024/04/21 12:38:39;;;;;;;;;;;;;;;15.54;47.29;100316.53;5281089;27;1165;-48